LGKV/KVA METAR and TAF weather

Enter ICAO airport designator
Station Type Date Time Source
LGKV METAR 2021/04/17 19:20 UTC NOAA

LGKV 171920Z 09005KT 9999 FEW040 BKN080 13/07 Q1012


Station Type Date Time Source
LGKV Decoded METAR 2021/04/17 19:20 UTC NOAA

Chrysoupoli Airport , Greece (LGKV) 40-59N 024-36E 5M
Apr 17, 2021 - 03:20 PM EDT / 2021.04.17 1920 UTC
Wind: from the E (090 degrees) at 6 MPH (5 KT):0
Visibility: greater than 7 mile(s):0
Sky conditions: mostly cloudy
Temperature: 55 F (13 C)
Dew Point: 44 F (7 C)
Relative Humidity: 66%
Pressure (altimeter): 29.88 in. Hg (1012 hPa)
ob: LGKV 171920Z 09005KT 9999 FEW040 BKN080 13/07 Q1012
cycle: 19

Station Type Date Time Source
LGKV TAF 2021/04/17 18:15 UTC NOAA

TAF LGKV 171700Z 1718/1818 06010KT 9999 SCT030 SCT080
BECMG 1801/1803 BKN025
BECMG 1813/1815 VRB03KT FEW030

Example: see airport list